Time;durP1;ratioP1;P1;durP2;ratioP2;P2;SDS_P1;SDS_P2;PMS_P1;PMS_P2;Temp;Humidity;BMP_temperature;BMP_pressure;BME280_temperature;BME280_humidity;BME280_pressure;Samples;Min_cycle;Max_cycle;Signal;HPM_P1;HPM_P2
2022/09/11 00:00:42;;;;;;;0.50;0.50;;;17.60;99.90;;;;;;5092181;27;20214;-60
2022/09/11 00:03:09;;;;;;;0.77;0.77;;;17.60;99.90;;;;;;5093090;28;20202;-60
2022/09/11 00:05:38;;;;;;;0.60;0.60;;;17.50;99.90;;;;;;5091450;28;20217;-62
2022/09/11 00:08:06;;;;;;;0.70;0.70;;;17.50;99.90;;;;;;5097853;27;20203;-61
2022/09/11 00:10:36;;;;;;;0.50;0.50;;;17.50;99.90;;;;;;5092907;27;20221;-60
2022/09/11 00:13:03;;;;;;;0.60;0.60;;;17.50;99.90;;;;;;5091346;27;20229;-60
2022/09/11 00:15:36;;;;;;;0.60;0.60;;;17.50;99.90;;;;;;5092864;28;20213;-61
2022/09/11 00:18:03;;;;;;;0.57;0.50;;;17.60;99.90;;;;;;5090072;28;20199;-60
2022/09/11 00:20:32;;;;;;;0.50;0.50;;;17.60;99.90;;;;;;5096037;27;20285;-60
2022/09/11 00:23:00;;;;;;;0.47;0.47;;;17.60;99.90;;;;;;5099425;27;21638;-61
2022/09/11 00:25:28;;;;;;;0.37;0.37;;;17.60;99.90;;;;;;5091146;28;20222;-60
2022/09/11 00:27:54;;;;;;;0.57;0.57;;;17.60;99.90;;;;;;5095807;27;20235;-60
2022/09/11 00:30:21;;;;;;;0.60;0.60;;;17.50;99.90;;;;;;5095393;27;20221;-60
2022/09/11 00:32:49;;;;;;;0.67;0.67;;;17.50;99.90;;;;;;5098090;27;20976;-61
2022/09/11 00:35:16;;;;;;;0.63;0.63;;;17.50;99.90;;;;;;5101654;27;20270;-60
2022/09/11 00:37:43;;;;;;;0.80;0.80;;;17.60;99.90;;;;;;5100257;27;20218;-61
2022/09/11 00:40:10;;;;;;;0.60;0.60;;;17.60;99.90;;;;;;5102225;27;20275;-60
2022/09/11 00:42:37;;;;;;;0.50;0.50;;;17.50;99.90;;;;;;5099752;28;20241;-60
2022/09/11 00:45:06;;;;;;;0.60;0.40;;;17.50;99.90;;;;;;5100629;28;20633;-60
2022/09/11 00:47:34;;;;;;;0.60;0.60;;;17.40;99.90;;;;;;5096519;27;20208;-60
2022/09/11 00:50:10;;;;;;;0.50;0.50;;;17.40;99.90;;;;;;5099112;27;20230;-61
2022/09/11 00:52:41;;;;;;;0.70;0.70;;;17.50;99.90;;;;;;5095804;28;20210;-61
2022/09/11 00:55:13;;;;;;;0.47;0.43;;;17.50;99.90;;;;;;5102169;27;20209;-60
2022/09/11 00:57:44;;;;;;;0.60;0.60;;;17.40;99.90;;;;;;5100099;28;20235;-61
2022/09/11 01:00:13;;;;;;;0.50;0.50;;;17.50;99.90;;;;;;5108444;28;20823;-60
2022/09/11 01:02:43;;;;;;;0.73;0.70;;;17.40;99.90;;;;;;5104263;28;20283;-61
2022/09/11 01:05:12;;;;;;;0.60;0.60;;;17.40;99.90;;;;;;5100572;28;20198;-61
2022/09/11 01:07:41;;;;;;;0.73;0.70;;;17.40;99.90;;;;;;5103930;28;20201;-60
2022/09/11 01:10:10;;;;;;;0.50;0.50;;;17.40;99.90;;;;;;5108057;28;20230;-64
2022/09/11 01:12:47;;;;;;;0.60;0.60;;;17.50;99.90;;;;;;5107524;28;20210;-60
2022/09/11 01:15:20;;;;;;;0.50;0.50;;;17.50;99.90;;;;;;5105352;28;20197;-62
2022/09/11 01:17:55;;;;;;;0.50;0.50;;;17.50;99.90;;;;;;5105095;28;20198;-62
2022/09/11 01:20:35;;;;;;;0.50;0.50;;;17.60;99.90;;;;;;5106545;28;20220;-62
2022/09/11 01:23:33;;;;;;;0.50;0.50;;;17.60;99.90;;;;;;5119734;27;20242;-61
2022/09/11 01:26:17;;;;;;;0.50;0.50;;;17.60;99.90;;;;;;5102832;28;20588;-61
2022/09/11 01:28:51;;;;;;;0.63;0.63;;;17.70;99.90;;;;;;5089935;28;20248;-61
2022/09/11 01:31:24;;;;;;;0.60;0.60;;;17.60;99.90;;;;;;5098408;28;20239;-61
2022/09/11 01:33:58;;;;;;;0.60;0.60;;;17.60;99.90;;;;;;5093639;28;20248;-60
2022/09/11 01:36:30;;;;;;;0.60;0.60;;;17.70;99.90;;;;;;5102992;28;20193;-60
2022/09/11 01:38:59;;;;;;;0.37;0.37;;;17.70;99.90;;;;;;5110133;27;20233;-62
2022/09/11 01:41:29;;;;;;;0.70;0.70;;;17.60;99.90;;;;;;5104782;22;20235;-67
2022/09/11 01:44:02;;;;;;;0.70;0.70;;;17.60;99.90;;;;;;5078698;28;20218;-66
2022/09/11 01:46:34;;;;;;;0.53;0.40;;;17.60;99.90;;;;;;5076728;28;20250;-67
2022/09/11 01:49:05;;;;;;;0.67;0.67;;;17.70;99.90;;;;;;5081439;28;20665;-67
2022/09/11 01:51:36;;;;;;;0.40;0.40;;;17.70;99.90;;;;;;5080252;28;20230;-68
2022/09/11 01:54:07;;;;;;;0.60;0.60;;;17.60;99.90;;;;;;5070300;28;20211;-67
2022/09/11 01:56:39;;;;;;;0.70;0.70;;;17.70;99.90;;;;;;5089184;28;20209;-67
2022/09/11 01:59:13;;;;;;;0.53;0.53;;;17.70;99.90;;;;;;5078852;28;20230;-68
2022/09/11 02:01:46;;;;;;;0.53;0.53;;;17.70;99.90;;;;;;5078783;28;20229;-68
2022/09/11 02:04:17;;;;;;;0.57;0.57;;;17.70;99.90;;;;;;5074251;28;20206;-68
2022/09/11 02:06:48;;;;;;;0.70;0.70;;;17.70;99.90;;;;;;5084930;28;20206;-68
2022/09/11 02:09:18;;;;;;;0.60;0.60;;;17.60;99.90;;;;;;5084461;28;20194;-67
2022/09/11 02:11:49;;;;;;;0.97;0.67;;;17.60;99.90;;;;;;5088496;28;20685;-68
2022/09/11 02:14:25;;;;;;;0.50;0.50;;;17.60;99.90;;;;;;5091237;28;20289;-67
2022/09/11 02:16:55;;;;;;;0.60;0.60;;;17.70;99.90;;;;;;5090247;28;20281;-67
2022/09/11 02:19:25;;;;;;;0.40;0.40;;;17.60;99.90;;;;;;5069922;28;20209;-66
2022/09/11 02:21:53;;;;;;;0.60;0.60;;;17.60;99.90;;;;;;5081616;28;20214;-68
2022/09/11 02:24:21;;;;;;;0.63;0.63;;;17.60;99.90;;;;;;5074145;28;20289;-68
2022/09/11 02:26:52;;;;;;;0.50;0.50;;;17.60;99.90;;;;;;5085444;28;20202;-67
2022/09/11 02:29:21;;;;;;;0.70;0.70;;;17.70;99.90;;;;;;5074281;28;20206;-66
2022/09/11 02:31:49;;;;;;;0.60;0.60;;;17.70;99.90;;;;;;5085429;28;20245;-67
2022/09/11 02:34:18;;;;;;;0.50;0.50;;;17.60;99.90;;;;;;5082947;28;20209;-66
2022/09/11 02:37:02;;;;;;;0.50;0.50;;;17.70;99.90;;;;;;5085255;28;20210;-65
2022/09/11 02:39:59;;;;;;;0.40;0.40;;;17.70;99.90;;;;;;5079156;28;20259;-67
2022/09/11 02:42:34;;;;;;;0.60;0.60;;;17.70;99.90;;;;;;5077934;28;20195;-66
2022/09/11 02:45:13;;;;;;;0.47;0.47;;;17.60;99.90;;;;;;5090076;28;20229;-68
2022/09/11 02:47:48;;;;;;;0.60;0.60;;;17.60;99.90;;;;;;5080969;28;20229;-68
2022/09/11 02:50:25;;;;;;;0.60;0.60;;;17.50;99.90;;;;;;5084682;28;20224;-66
2022/09/11 02:52:58;;;;;;;0.50;0.50;;;17.50;99.90;;;;;;5083399;28;20226;-68
2022/09/11 02:55:32;;;;;;;0.53;0.53;;;17.60;99.90;;;;;;5071648;28;20199;-67
2022/09/11 02:58:03;;;;;;;0.40;0.40;;;17.70;99.90;;;;;;5083113;28;20222;-67
2022/09/11 03:00:31;;;;;;;0.57;0.57;;;17.80;99.90;;;;;;5084913;28;20225;-66
2022/09/11 03:02:59;;;;;;;0.50;0.50;;;17.70;99.90;;;;;;5083351;28;20260;-68
2022/09/11 03:05:27;;;;;;;0.50;0.50;;;17.60;99.90;;;;;;5078267;28;20199;-66
2022/09/11 03:07:54;;;;;;;0.47;0.47;;;17.60;99.90;;;;;;5073512;28;20203;-68
2022/09/11 03:10:21;;;;;;;0.60;0.60;;;17.60;99.90;;;;;;5081676;28;20242;-67
2022/09/11 03:12:48;;;;;;;0.80;0.57;;;17.60;99.90;;;;;;5076225;28;20241;-66
2022/09/11 03:15:16;;;;;;;0.60;0.60;;;17.50;99.90;;;;;;5080987;28;20203;-68
2022/09/11 03:17:44;;;;;;;0.50;0.50;;;17.50;99.90;;;;;;5075208;28;20218;-67
2022/09/11 03:20:11;;;;;;;0.67;0.67;;;17.60;99.90;;;;;;5084486;28;20306;-68
2022/09/11 03:22:38;;;;;;;0.40;0.40;;;17.60;99.90;;;;;;5080114;28;20197;-67
2022/09/11 03:25:06;;;;;;;0.40;0.40;;;17.70;99.90;;;;;;5077110;28;20211;-66
2022/09/11 03:27:33;;;;;;;0.60;0.60;;;17.70;99.90;;;;;;5079178;28;20198;-68
2022/09/11 03:30:00;;;;;;;0.60;0.60;;;17.60;99.90;;;;;;5077818;28;20582;-67
2022/09/11 03:32:27;;;;;;;0.50;0.43;;;17.50;99.90;;;;;;5083536;28;20606;-66
2022/09/11 03:34:55;;;;;;;0.40;0.40;;;17.50;99.90;;;;;;5077989;28;20206;-66
2022/09/11 03:37:21;;;;;;;0.57;0.57;;;17.60;99.90;;;;;;5083242;28;20205;-66
2022/09/11 03:39:48;;;;;;;0.60;0.60;;;17.60;99.90;;;;;;5076721;28;20285;-66
2022/09/11 03:42:15;;;;;;;0.50;0.50;;;17.50;99.90;;;;;;5078117;28;20794;-66
2022/09/11 03:44:44;;;;;;;0.53;0.53;;;17.50;99.90;;;;;;5079179;28;20199;-65
2022/09/11 03:47:11;;;;;;;0.47;0.47;;;17.50;99.90;;;;;;5074990;28;20218;-67
2022/09/11 03:49:38;;;;;;;0.50;0.50;;;17.50;99.90;;;;;;5084071;28;20202;-66
2022/09/11 03:52:06;;;;;;;0.83;0.77;;;17.60;99.90;;;;;;5077409;28;20802;-67
2022/09/11 03:54:34;;;;;;;0.40;0.40;;;17.60;99.90;;;;;;5083436;28;20613;-68
2022/09/11 03:57:01;;;;;;;0.57;0.57;;;17.50;99.90;;;;;;5078032;28;20215;-66
2022/09/11 03:59:27;;;;;;;0.50;0.50;;;17.60;99.90;;;;;;5077659;28;20325;-67
2022/09/11 04:01:54;;;;;;;0.50;0.50;;;17.60;99.90;;;;;;5074139;28;20305;-67
2022/09/11 04:04:21;;;;;;;0.53;0.53;;;17.60;99.90;;;;;;5087402;28;20289;-67
2022/09/11 04:06:48;;;;;;;0.53;0.53;;;17.60;99.90;;;;;;5076450;28;20199;-66
2022/09/11 04:09:17;;;;;;;0.43;0.40;;;17.60;99.90;;;;;;5087575;28;20290;-66
2022/09/11 04:11:44;;;;;;;0.70;0.70;;;17.50;99.90;;;;;;5080779;28;20223;-66
2022/09/11 04:14:11;;;;;;;0.47;0.47;;;17.50;99.90;;;;;;5090166;28;20206;-66
2022/09/11 04:16:38;;;;;;;0.47;0.47;;;17.50;99.90;;;;;;5088702;28;20223;-67
2022/09/11 04:19:04;;;;;;;0.37;0.37;;;17.50;99.90;;;;;;5082839;28;20289;-67
2022/09/11 04:21:33;;;;;;;0.50;0.50;;;17.50;99.90;;;;;;5089185;28;20310;-66
2022/09/11 04:24:00;;;;;;;0.50;0.50;;;17.40;99.90;;;;;;5091037;28;20233;-68
2022/09/11 04:26:30;;;;;;;0.60;0.60;;;17.40;99.90;;;;;;5097642;28;20203;-67
2022/09/11 04:28:58;;;;;;;0.50;0.50;;;17.40;99.90;;;;;;5080308;28;20565;-67
2022/09/11 04:31:26;;;;;;;1.27;0.60;;;17.60;99.90;;;;;;5083954;28;20230;-68
2022/09/11 04:33:53;;;;;;;0.60;0.60;;;17.40;99.90;;;;;;5081369;28;20237;-66
2022/09/11 04:36:21;;;;;;;0.60;0.60;;;17.50;99.90;;;;;;5068101;28;20297;-67
2022/09/11 04:38:54;;;;;;;0.63;0.63;;;17.50;99.90;;;;;;5085130;28;20195;-67
2022/09/11 04:41:21;;;;;;;0.70;0.70;;;17.50;99.90;;;;;;5069293;28;20656;-68
2022/09/11 04:43:49;;;;;;;0.63;0.60;;;17.40;99.90;;;;;;5083425;28;20203;-66
2022/09/11 04:46:18;;;;;;;0.80;0.80;;;17.30;99.90;;;;;;5076897;28;20320;-66
2022/09/11 04:48:44;;;;;;;0.60;0.60;;;17.30;99.90;;;;;;5084221;28;20203;-67
2022/09/11 04:51:20;;;;;;;0.70;0.70;;;17.30;99.90;;;;;;5082850;28;20223;-66
2022/09/11 04:53:48;;;;;;;0.50;0.50;;;17.30;99.90;;;;;;5082503;28;20628;-67
2022/09/11 04:56:15;;;;;;;0.40;0.40;;;17.30;99.90;;;;;;5082638;28;20210;-65
2022/09/11 04:58:42;;;;;;;0.53;0.50;;;17.20;99.90;;;;;;5087641;28;20201;-67
2022/09/11 05:01:12;;;;;;;0.57;0.57;;;17.20;99.90;;;;;;5082065;28;20223;-67
2022/09/11 05:03:39;;;;;;;0.50;0.50;;;17.10;99.90;;;;;;5084818;28;20230;-66
2022/09/11 05:06:07;;;;;;;0.60;0.60;;;17.10;99.90;;;;;;5085854;28;20202;-66
2022/09/11 05:08:35;;;;;;;0.60;0.60;;;17.00;99.90;;;;;;5085487;28;20276;-67
2022/09/11 05:11:04;;;;;;;0.40;0.40;;;17.10;99.90;;;;;;5081469;28;20310;-67
2022/09/11 05:13:32;;;;;;;0.87;0.80;;;17.10;99.90;;;;;;5075806;28;20219;-67
2022/09/11 05:16:02;;;;;;;0.57;0.57;;;17.10;99.90;;;;;;5082507;28;20199;-66
2022/09/11 05:18:30;;;;;;;0.70;0.70;;;17.20;99.90;;;;;;5078646;28;20214;-67
2022/09/11 05:21:01;;;;;;;0.70;0.70;;;17.20;99.90;;;;;;5085687;28;20226;-66
2022/09/11 05:23:28;;;;;;;0.57;0.57;;;17.30;99.90;;;;;;5079362;28;20199;-65
2022/09/11 05:25:57;;;;;;;0.60;0.60;;;17.30;99.90;;;;;;5086735;28;20640;-67
2022/09/11 05:28:25;;;;;;;0.80;0.80;;;17.30;99.90;;;;;;5078190;28;20207;-67
2022/09/11 05:30:53;;;;;;;0.57;0.57;;;17.30;99.90;;;;;;5087149;28;20226;-67
2022/09/11 05:33:20;;;;;;;1.10;0.70;;;17.30;99.90;;;;;;5073783;28;20242;-67
2022/09/11 05:35:49;;;;;;;0.43;0.37;;;17.40;99.90;;;;;;5079345;28;20203;-66
2022/09/11 05:38:16;;;;;;;0.60;0.60;;;17.30;99.90;;;;;;5085026;28;20246;-67
2022/09/11 05:40:44;;;;;;;1.00;0.67;;;17.30;99.90;;;;;;5082237;28;20707;-66
2022/09/11 05:43:13;;;;;;;0.90;0.90;;;17.30;99.90;;;;;;5090449;28;20207;-67
2022/09/11 05:45:40;;;;;;;0.97;0.80;;;17.30;99.90;;;;;;5083193;28;20291;-67
2022/09/11 05:48:07;;;;;;;0.70;0.70;;;17.30;99.90;;;;;;5090342;28;20210;-66
2022/09/11 05:50:34;;;;;;;0.50;0.50;;;17.30;99.90;;;;;;5082644;28;20304;-67
2022/09/11 05:53:02;;;;;;;0.80;0.80;;;17.30;99.90;;;;;;5083421;28;20223;-67
2022/09/11 05:55:29;;;;;;;0.77;0.77;;;17.30;99.90;;;;;;5090213;28;20199;-67
2022/09/11 05:57:55;;;;;;;0.60;0.60;;;17.30;99.90;;;;;;5085584;28;20745;-67
2022/09/11 06:00:22;;;;;;;1.23;0.80;;;17.30;99.90;;;;;;5096863;28;20285;-67
2022/09/11 06:02:49;;;;;;;0.50;0.50;;;17.30;99.90;;;;;;5087728;28;20277;-67
2022/09/11 06:05:17;;;;;;;0.80;0.80;;;17.30;99.90;;;;;;5095083;28;20244;-67
2022/09/11 06:07:44;;;;;;;0.43;0.43;;;17.30;99.90;;;;;;5092610;28;20206;-66
2022/09/11 06:10:12;;;;;;;0.80;0.80;;;17.30;99.90;;;;;;5087900;28;20227;-67
2022/09/11 06:12:39;;;;;;;0.67;0.67;;;17.30;99.90;;;;;;5087701;28;20221;-68
2022/09/11 06:15:07;;;;;;;0.80;0.80;;;17.30;99.90;;;;;;5085300;28;20203;-67
2022/09/11 06:17:34;;;;;;;0.50;0.50;;;17.30;99.90;;;;;;5082963;28;20279;-67
2022/09/11 06:20:01;;;;;;;0.80;0.80;;;17.40;99.90;;;;;;5077733;28;20211;-67
2022/09/11 06:22:32;;;;;;;0.53;0.53;;;17.40;99.90;;;;;;5088332;28;20207;-67
2022/09/11 06:24:59;;;;;;;0.50;0.50;;;17.40;99.90;;;;;;5090263;28;20574;-67
2022/09/11 06:27:27;;;;;;;0.63;0.63;;;17.50;99.90;;;;;;5084289;28;20274;-66
2022/09/11 06:29:54;;;;;;;1.00;0.90;;;17.50;99.90;;;;;;5087983;28;20294;-67
2022/09/11 06:32:21;;;;;;;0.60;0.60;;;17.40;99.90;;;;;;5076086;28;20218;-67
2022/09/11 06:34:48;;;;;;;0.83;0.83;;;17.40;99.90;;;;;;5087125;28;20207;-67
2022/09/11 06:37:15;;;;;;;0.63;0.63;;;17.40;99.90;;;;;;5083005;28;21120;-67
2022/09/11 06:39:41;;;;;;;0.63;0.63;;;17.40;99.90;;;;;;5085838;28;20206;-67
2022/09/11 06:42:09;;;;;;;0.60;0.60;;;17.50;99.90;;;;;;5084236;28;20546;-67
2022/09/11 06:44:37;;;;;;;0.60;0.60;;;17.50;99.90;;;;;;5085511;28;20205;-66
2022/09/11 06:47:04;;;;;;;0.60;0.60;;;17.40;99.90;;;;;;5083677;28;20207;-67
2022/09/11 06:49:31;;;;;;;0.60;0.60;;;17.50;99.90;;;;;;5084831;28;20667;-67
2022/09/11 06:51:58;;;;;;;0.50;0.50;;;17.60;99.90;;;;;;5084800;28;20227;-67
2022/09/11 06:54:25;;;;;;;0.60;0.60;;;17.60;99.90;;;;;;5084386;28;20199;-67
2022/09/11 06:56:51;;;;;;;0.63;0.63;;;17.70;99.90;;;;;;5077324;28;20218;-66
2022/09/11 06:59:22;;;;;;;0.50;0.50;;;17.70;99.90;;;;;;5083979;28;20257;-67
2022/09/11 07:01:50;;;;;;;0.67;0.67;;;17.60;99.90;;;;;;5083248;28;20357;-66
2022/09/11 07:04:17;;;;;;;0.77;0.77;;;17.60;99.90;;;;;;5087760;28;20658;-66
2022/09/11 07:06:44;;;;;;;0.70;0.70;;;17.60;99.90;;;;;;5074602;28;20203;-67
2022/09/11 07:09:11;;;;;;;0.80;0.80;;;17.60;99.90;;;;;;5088387;28;20599;-67
2022/09/11 07:11:42;;;;;;;0.77;0.77;;;17.70;99.90;;;;;;5081283;28;20306;-67
2022/09/11 07:14:10;;;;;;;0.80;0.80;;;17.70;99.90;;;;;;5089434;28;20190;-66
2022/09/11 07:16:36;;;;;;;0.70;0.70;;;17.70;99.90;;;;;;5081670;28;20230;-68
2022/09/11 07:19:05;;;;;;;0.87;0.80;;;17.70;99.90;;;;;;5081961;28;20199;-67
2022/09/11 07:21:33;;;;;;;0.73;0.70;;;17.70;99.90;;;;;;5085935;28;20310;-66
2022/09/11 07:24:00;;;;;;;0.80;0.80;;;17.70;99.90;;;;;;5081451;28;20500;-67
2022/09/11 07:26:28;;;;;;;0.60;0.60;;;17.70;99.90;;;;;;5087407;28;20195;-67
2022/09/11 07:28:56;;;;;;;0.60;0.60;;;17.70;99.90;;;;;;5077262;28;20207;-66
2022/09/11 07:31:25;;;;;;;0.80;0.80;;;17.70;99.90;;;;;;5081105;28;20227;-66
2022/09/11 07:33:53;;;;;;;0.80;0.80;;;17.80;99.90;;;;;;5080391;28;20314;-68
2022/09/11 07:36:25;;;;;;;0.87;0.87;;;17.80;99.90;;;;;;5084200;28;20252;-67
2022/09/11 07:38:52;;;;;;;0.90;0.90;;;17.80;99.90;;;;;;5082236;28;20239;-67
2022/09/11 07:41:21;;;;;;;1.00;1.00;;;17.90;99.90;;;;;;5083388;28;20711;-67
2022/09/11 07:43:52;;;;;;;0.60;0.60;;;17.80;99.90;;;;;;5084120;28;20759;-67
2022/09/11 07:46:20;;;;;;;1.30;0.90;;;17.90;99.90;;;;;;5084108;28;20221;-67
2022/09/11 07:48:47;;;;;;;0.70;0.70;;;17.90;99.90;;;;;;5084466;28;20286;-67
2022/09/11 07:51:15;;;;;;;0.60;0.60;;;17.90;99.90;;;;;;5083088;28;20227;-67
2022/09/11 07:53:45;;;;;;;0.80;0.80;;;17.90;99.90;;;;;;5083616;28;20228;-66
2022/09/11 07:56:14;;;;;;;0.80;0.80;;;17.90;99.90;;;;;;5081729;28;20209;-68
2022/09/11 08:01:22;;;;;;;0.80;0.80;;;17.90;99.90;;;;;;5057871;28;20614;-62
2022/09/11 08:03:54;;;;;;;0.73;0.73;;;17.90;99.90;;;;;;5072431;28;20199;-62
2022/09/11 08:06:22;;;;;;;0.87;0.87;;;17.90;99.90;;;;;;5069194;28;20195;-60
2022/09/11 08:08:54;;;;;;;0.83;0.83;;;17.90;99.90;;;;;;5085807;28;20199;-61
2022/09/11 08:11:21;;;;;;;0.70;0.70;;;18.00;99.90;;;;;;5077579;28;20207;-60
2022/09/11 08:13:50;;;;;;;0.90;0.90;;;18.00;99.90;;;;;;5086553;28;20225;-62
2022/09/11 08:16:18;;;;;;;0.90;0.90;;;18.10;99.90;;;;;;5080208;28;20654;-61
2022/09/11 08:18:45;;;;;;;0.70;0.70;;;18.10;99.90;;;;;;5081297;28;20214;-61
2022/09/11 08:21:12;;;;;;;0.73;0.73;;;18.20;99.90;;;;;;5081758;28;20669;-61
2022/09/11 08:23:41;;;;;;;0.80;0.80;;;18.20;99.90;;;;;;5080455;28;20192;-61
2022/09/11 08:26:11;;;;;;;0.73;0.73;;;18.30;99.90;;;;;;5086361;28;20698;-60
2022/09/11 08:28:39;;;;;;;0.73;0.73;;;18.40;99.90;;;;;;5076676;28;20204;-60
2022/09/11 08:31:06;;;;;;;1.03;1.03;;;18.50;99.90;;;;;;5061669;28;20315;-61
2022/09/11 08:33:34;;;;;;;0.90;0.90;;;18.40;99.90;;;;;;5062522;28;20219;-60
2022/09/11 08:36:02;;;;;;;0.80;0.80;;;18.40;99.90;;;;;;5065291;28;20227;-60
2022/09/11 08:38:29;;;;;;;0.70;0.70;;;18.30;99.90;;;;;;5062748;28;20579;-60
2022/09/11 08:40:58;;;;;;;0.80;0.80;;;18.30;99.90;;;;;;5059647;28;20224;-59
2022/09/11 08:43:31;;;;;;;0.90;0.90;;;18.40;99.90;;;;;;5065566;28;20191;-60
2022/09/11 08:46:03;;;;;;;0.93;0.93;;;18.50;99.90;;;;;;5060726;28;20222;-60
2022/09/11 08:48:37;;;;;;;1.03;1.03;;;18.50;99.90;;;;;;5065276;28;20297;-60
2022/09/11 08:51:04;;;;;;;0.70;0.70;;;18.60;99.90;;;;;;5064317;28;20314;-61
2022/09/11 08:53:32;;;;;;;0.70;0.70;;;18.70;99.90;;;;;;5059042;28;20318;-61
2022/09/11 08:56:06;;;;;;;0.80;0.80;;;18.80;99.90;;;;;;5060563;28;20585;-60
2022/09/11 08:58:50;;;;;;;0.87;0.80;;;18.80;99.90;;;;;;5066565;28;20256;-61
2022/09/11 09:01:27;;;;;;;0.70;0.70;;;18.90;99.90;;;;;;5065944;28;20664;-60
2022/09/11 09:04:22;;;;;;;1.00;1.00;;;18.90;99.90;;;;;;5059299;28;20199;-60
2022/09/11 09:07:00;;;;;;;0.90;0.90;;;18.90;99.90;;;;;;5061119;28;20208;-60
2022/09/11 09:09:38;;;;;;;1.30;1.10;;;18.90;99.90;;;;;;5064943;28;20301;-60
2022/09/11 09:12:14;;;;;;;0.90;0.90;;;18.90;99.90;;;;;;5070933;28;20243;-59
2022/09/11 09:15:09;;;;;;;0.80;0.80;;;19.00;99.90;;;;;;5066761;28;20227;-61
2022/09/11 09:17:51;;;;;;;0.60;0.60;;;19.10;99.90;;;;;;5062983;28;20666;-61
2022/09/11 09:20:28;;;;;;;0.90;0.90;;;19.20;99.90;;;;;;5069146;28;20707;-60
2022/09/11 09:23:20;;;;;;;0.80;0.80;;;19.30;99.90;;;;;;5064564;28;20708;-61
2022/09/11 09:25:51;;;;;;;0.80;0.80;;;19.50;99.90;;;;;;5061717;28;20199;-59
2022/09/11 09:28:23;;;;;;;0.90;0.90;;;19.60;99.90;;;;;;5064678;28;20286;-61
2022/09/11 09:30:56;;;;;;;1.00;1.00;;;19.80;99.90;;;;;;5068169;28;20247;-60
2022/09/11 09:33:30;;;;;;;1.20;1.20;;;19.80;99.90;;;;;;5062054;28;20300;-60
2022/09/11 09:36:12;;;;;;;1.13;1.13;;;19.80;99.90;;;;;;5061489;28;20203;-60
2022/09/11 09:38:47;;;;;;;1.00;1.00;;;19.70;99.90;;;;;;5067952;28;20196;-60
2022/09/11 09:42:02;;;;;;;1.07;1.03;;;19.60;99.90;;;;;;5068505;28;20210;-61
2022/09/11 09:44:45;;;;;;;0.80;0.80;;;19.50;99.90;;;;;;5068654;28;20759;-59
2022/09/11 09:47:14;;;;;;;1.00;1.00;;;19.50;99.90;;;;;;5065279;28;20216;-60
2022/09/11 09:49:42;;;;;;;0.80;0.80;;;19.50;99.90;;;;;;5064716;28;20216;-63
2022/09/11 09:52:18;;;;;;;0.90;0.90;;;19.70;99.90;;;;;;5075241;28;20203;-60
2022/09/11 09:54:52;;;;;;;0.82;0.82;;;19.80;99.90;;;;;;5064689;28;20215;-61
2022/09/11 09:57:23;;;;;;;0.97;0.97;;;19.90;99.90;;;;;;5067282;28;20647;-61
2022/09/11 09:59:55;;;;;;;1.17;1.13;;;20.20;99.90;;;;;;5060231;28;20239;-62
2022/09/11 10:02:40;;;;;;;0.90;0.90;;;20.60;99.90;;;;;;5070912;28;20198;-61
2022/09/11 10:05:17;;;;;;;0.88;0.88;;;21.00;99.90;;;;;;5066803;28;20200;-62
2022/09/11 10:07:51;;;;;;;1.00;1.00;;;21.10;99.90;;;;;;5064350;28;20302;-61
2022/09/11 10:10:24;;;;;;;0.80;0.80;;;21.40;99.90;;;;;;5061082;28;20226;-64
2022/09/11 10:12:51;;;;;;;1.40;1.30;;;21.70;99.90;;;;;;5058451;28;20214;-61
2022/09/11 10:15:21;;;;;;;1.50;1.40;;;21.50;99.90;;;;;;5064983;28;20217;-62
2022/09/11 10:17:50;;;;;;;1.20;1.20;;;21.20;99.90;;;;;;5068316;28;20203;-62
2022/09/11 10:20:25;;;;;;;1.23;1.23;;;21.20;99.90;;;;;;5067281;28;20219;-62
2022/09/11 10:22:53;;;;;;;1.00;1.00;;;21.10;99.90;;;;;;5063603;28;20199;-62
2022/09/11 10:25:25;;;;;;;1.20;1.20;;;21.20;99.90;;;;;;5067540;28;20208;-62
2022/09/11 10:28:01;;;;;;;1.10;1.10;;;21.50;99.90;;;;;;5062055;28;20204;-63
2022/09/11 10:30:36;;;;;;;1.00;1.00;;;21.30;99.90;;;;;;5062665;28;20323;-62
2022/09/11 10:33:13;;;;;;;1.20;1.20;;;21.20;99.90;;;;;;5060856;28;20212;-62
2022/09/11 10:35:49;;;;;;;1.00;1.00;;;21.20;99.90;;;;;;5064584;28;20210;-64
2022/09/11 10:38:18;;;;;;;1.30;1.20;;;21.20;99.90;;;;;;5066762;28;20199;-63
2022/09/11 10:40:58;;;;;;;1.08;1.00;;;21.40;99.90;;;;;;5064360;28;20224;-63
2022/09/11 10:43:31;;;;;;;1.00;1.00;;;21.60;99.90;;;;;;5065526;28;20202;-63
2022/09/11 10:46:03;;;;;;;1.10;1.10;;;21.90;99.90;;;;;;5060541;28;20559;-62
2022/09/11 10:48:31;;;;;;;1.08;1.08;;;22.00;99.90;;;;;;5066806;28;20203;-62
2022/09/11 10:51:10;;;;;;;1.05;1.05;;;22.20;99.90;;;;;;5072958;28;20231;-63
2022/09/11 10:53:47;;;;;;;1.00;1.00;;;22.40;99.90;;;;;;5064557;28;20223;-65
2022/09/11 10:56:15;;;;;;;0.85;0.85;;;22.80;99.90;;;;;;5077111;28;20203;-62
2022/09/11 10:58:45;;;;;;;1.00;1.00;;;22.90;99.90;;;;;;5081154;28;20260;-62
2022/09/11 11:01:12;;;;;;;0.98;0.98;;;23.00;99.90;;;;;;5083652;28;20222;-62
2022/09/11 11:03:40;;;;;;;0.90;0.90;;;22.90;99.90;;;;;;5081289;28;20236;-61
2022/09/11 11:06:22;;;;;;;1.07;1.00;;;22.70;99.90;;;;;;5063779;28;20218;-61
2022/09/11 11:09:13;;;;;;;1.03;1.03;;;22.70;99.90;;;;;;5059713;28;20206;-62
2022/09/11 11:11:54;;;;;;;1.13;1.10;;;23.00;99.90;;;;;;5057888;28;20217;-61
2022/09/11 11:14:46;;;;;;;0.90;0.90;;;23.20;99.90;;;;;;5060741;28;20239;-62
2022/09/11 11:17:23;;;;;;;0.90;0.90;;;23.00;99.90;;;;;;5053950;28;20283;-61
2022/09/11 11:20:13;;;;;;;1.00;1.00;;;22.50;99.90;;;;;;5069994;28;20221;-61
2022/09/11 11:23:07;;;;;;;0.98;0.98;;;22.10;99.90;;;;;;5059275;28;20200;-61
2022/09/11 11:25:43;;;;;;;1.00;1.00;;;22.10;99.90;;;;;;5067305;28;20195;-63
2022/09/11 11:28:27;;;;;;;0.80;0.80;;;22.60;99.90;;;;;;5071051;28;20202;-69
2022/09/11 11:31:05;;;;;;;0.80;0.80;;;23.00;99.90;;;;;;5070134;28;20227;-63
2022/09/11 11:33:49;;;;;;;0.80;0.80;;;23.30;99.90;;;;;;5064345;28;20752;-62
2022/09/11 11:36:27;;;;;;;0.70;0.70;;;23.60;99.90;;;;;;5074389;28;20558;-61
2022/09/11 11:39:00;;;;;;;0.60;0.60;;;23.70;99.90;;;;;;5061510;28;20199;-61
2022/09/11 11:41:32;;;;;;;0.77;0.77;;;23.90;99.90;;;;;;5054092;28;20208;-61
2022/09/11 11:44:03;;;;;;;0.70;0.70;;;24.10;99.90;;;;;;5068429;28;20863;-61
2022/09/11 11:46:37;;;;;;;0.80;0.80;;;24.20;99.90;;;;;;5067755;28;20657;-62
2022/09/11 11:49:09;;;;;;;0.70;0.70;;;24.30;99.90;;;;;;5062660;28;20269;-62
2022/09/11 11:51:47;;;;;;;0.60;0.60;;;24.50;99.90;;;;;;5073399;28;20201;-61
2022/09/11 11:54:19;;;;;;;0.60;0.60;;;24.60;99.90;;;;;;5075824;28;20226;-60
2022/09/11 11:56:49;;;;;;;0.50;0.50;;;24.60;99.90;;;;;;5064426;28;20196;-60
2022/09/11 11:59:24;;;;;;;0.80;0.80;;;24.70;99.90;;;;;;5066126;28;20281;-60
2022/09/11 12:01:58;;;;;;;0.98;0.98;;;24.80;99.90;;;;;;5066818;28;20215;-61
2022/09/11 12:04:35;;;;;;;0.73;0.73;;;24.80;99.90;;;;;;5057005;28;20294;-63
2022/09/11 12:07:05;;;;;;;0.63;0.63;;;25.00;99.90;;;;;;5070202;28;20291;-62
2022/09/11 12:09:32;;;;;;;0.90;0.90;;;25.00;99.90;;;;;;5077117;28;20219;-63
2022/09/11 12:12:05;;;;;;;0.65;0.65;;;24.80;99.90;;;;;;5066134;28;20258;-63
2022/09/11 12:14:33;;;;;;;0.80;0.80;;;24.80;99.90;;;;;;5074378;28;20230;-63
2022/09/11 12:17:18;;;;;;;0.80;0.80;;;24.80;99.90;;;;;;5069423;28;20654;-62
2022/09/11 12:20:23;;;;;;;0.73;0.73;;;24.70;99.90;;;;;;5057469;28;20243;-62
2022/09/11 12:22:51;;;;;;;0.60;0.60;;;24.60;99.90;;;;;;5046100;28;20210;-62
2022/09/11 12:25:48;;;;;;;0.85;0.85;;;24.50;99.90;;;;;;5057711;28;20195;-62
2022/09/11 12:28:23;;;;;;;0.70;0.70;;;24.50;99.90;;;;;;5071990;28;20200;-64
2022/09/11 12:30:56;;;;;;;0.70;0.70;;;24.70;99.90;;;;;;5059058;28;20221;-64
2022/09/11 12:33:49;;;;;;;0.70;0.70;;;24.80;99.90;;;;;;5062821;28;20199;-61
2022/09/11 12:36:18;;;;;;;0.85;0.85;;;24.70;99.90;;;;;;5048645;28;20219;-62
2022/09/11 12:38:52;;;;;;;0.82;0.82;;;24.40;99.90;;;;;;5063663;28;20200;-61
2022/09/11 12:41:26;;;;;;;0.57;0.57;;;24.50;99.90;;;;;;5071298;28;20199;-62
2022/09/11 12:43:53;;;;;;;0.60;0.60;;;24.60;99.90;;;;;;5076609;28;20199;-62
2022/09/11 12:47:13;;;;;;;0.60;0.60;;;24.70;99.90;;;;;;5077059;28;20282;-62
2022/09/11 12:49:42;;;;;;;0.80;0.80;;;24.60;99.90;;;;;;5062074;28;20229;-62
2022/09/11 12:52:34;;;;;;;0.50;0.50;;;24.30;99.90;;;;;;5067570;28;20214;-62
2022/09/11 12:55:22;;;;;;;0.68;0.68;;;24.40;99.90;;;;;;5063332;28;20589;-62
2022/09/11 12:57:50;;;;;;;0.70;0.70;;;24.50;99.90;;;;;;5059255;28;20206;-61
2022/09/11 13:00:23;;;;;;;0.70;0.70;;;24.60;99.90;;;;;;5073187;28;20234;-61
2022/09/11 13:02:55;;;;;;;0.50;0.50;;;24.60;99.90;;;;;;5075618;28;20207;-61
2022/09/11 13:05:27;;;;;;;0.70;0.70;;;24.80;99.90;;;;;;5059368;28;20245;-64
2022/09/11 13:07:57;;;;;;;0.60;0.60;;;24.80;99.90;;;;;;5075369;28;20231;-63
2022/09/11 13:10:32;;;;;;;0.52;0.52;;;24.80;99.90;;;;;;5070054;28;20222;-63
2022/09/11 13:13:01;;;;;;;0.52;0.52;;;24.90;99.90;;;;;;5077445;28;20241;-63